Time;durP1;ratioP1;P1;durP2;ratioP2;P2;SDS_P1;SDS_P2;PMS_P1;PMS_P2;Temp;Humidity;BMP_temperature;BMP_pressure;BME280_temperature;BME280_humidity;BME280_pressure;Samples;Min_cycle;Max_cycle;Signal;HPM_P1;HPM_P2
2023/05/28 00:00:31;;;;;;;;;;;;;;;13.63;68.32;101999.72;5045898;28;1374;-73
2023/05/28 00:02:56;;;;;;;;;;;;;;;13.59;66.64;101998.31;5058908;28;1355;-73
2023/05/28 00:05:22;;;;;;;;;;;;;;;13.57;66.35;102000.19;5048502;28;1342;-72
2023/05/28 00:07:47;;;;;;;;;;;;;;;13.51;68.57;102000.66;5058841;28;2248;-72
2023/05/28 00:10:12;;;;;;;;;;;;;;;13.46;67.76;102000.16;5066391;28;1093;-73
2023/05/28 00:12:37;;;;;;;;;;;;;;;13.44;69.35;101999.47;5056297;28;1007;-73
2023/05/28 00:15:03;;;;;;;;;;;;;;;13.39;68.66;102001.56;5063578;28;916;-72
2023/05/28 00:17:28;;;;;;;;;;;;;;;13.35;68.73;101998.34;5068478;28;1123;-73
2023/05/28 00:19:54;;;;;;;;;;;;;;;13.35;67.91;102007.94;5063889;28;1094;-73
2023/05/28 00:22:19;;;;;;;;;;;;;;;13.36;68.35;102007.00;5061778;28;1127;-72
2023/05/28 00:24:44;;;;;;;;;;;;;;;13.31;70.27;102006.53;5063066;28;1013;-73
2023/05/28 00:27:10;;;;;;;;;;;;;;;13.25;68.55;102006.03;5061506;28;1894;-73
2023/05/28 00:29:35;;;;;;;;;;;;;;;13.25;69.90;102006.03;5071629;28;1109;-72
2023/05/28 00:32:00;;;;;;;;;;;;;;;13.20;68.58;101992.50;5040785;28;1394;-73
2023/05/28 00:34:26;;;;;;;;;;;;;;;13.19;68.42;102006.47;5066616;28;1153;-73
2023/05/28 00:36:51;;;;;;;;;;;;;;;13.15;68.90;101999.81;5049217;28;1321;-72
2023/05/28 00:39:17;;;;;;;;;;;;;;;13.10;68.90;102001.94;5038985;28;1298;-72
2023/05/28 00:41:42;;;;;;;;;;;;;;;13.08;68.47;102001.22;5064676;28;1022;-72
2023/05/28 00:44:09;;;;;;;;;;;;;;;13.06;68.94;101994.44;5044754;28;1538;-72
2023/05/28 00:46:35;;;;;;;;;;;;;;;13.07;68.87;102002.13;5051688;28;1268;-72
2023/05/28 00:49:00;;;;;;;;;;;;;;;13.04;69.13;101997.16;5063540;28;1951;-73
2023/05/28 00:51:26;;;;;;;;;;;;;;;13.04;68.92;102002.38;5061027;28;1243;-72
2023/05/28 00:53:52;;;;;;;;;;;;;;;13.00;69.34;102003.53;5064760;28;1291;-72
2023/05/28 00:56:17;;;;;;;;;;;;;;;12.94;69.51;102001.38;5063240;28;1177;-73
2023/05/28 00:58:43;;;;;;;;;;;;;;;12.92;70.43;101998.06;5065295;28;1486;-72
2023/05/28 01:01:09;;;;;;;;;;;;;;;12.88;70.20;102007.03;5061369;28;1285;-74
2023/05/28 01:03:38;;;;;;;;;;;;;;;12.86;69.26;102008.94;5058952;28;1248;-73
2023/05/28 01:06:06;;;;;;;;;;;;;;;12.84;69.78;102008.19;5066432;28;1363;-74
2023/05/28 01:08:32;;;;;;;;;;;;;;;12.80;71.19;101998.97;5038359;28;1898;-72
2023/05/28 01:10:57;;;;;;;;;;;;;;;12.77;70.23;102006.03;5060801;28;1077;-72
2023/05/28 01:13:23;;;;;;;;;;;;;;;12.77;70.49;102002.59;5060431;28;1021;-74
2023/05/28 01:15:48;;;;;;;;;;;;;;;12.72;70.30;102002.09;5035696;28;1227;-72
2023/05/28 01:18:14;;;;;;;;;;;;;;;12.67;71.62;101996.38;5063517;28;1101;-72
2023/05/28 01:20:39;;;;;;;;;;;;;;;12.60;71.65;102003.81;5062109;28;1335;-72
2023/05/28 01:23:11;;;;;;;;;;;;;;;12.57;72.34;101998.84;5057509;28;1269;-72
2023/05/28 01:25:38;;;;;;;;;;;;;;;12.51;72.37;101999.28;5058757;28;1133;-72
2023/05/28 01:28:10;;;;;;;;;;;;;;;12.46;74.66;102001.38;5064632;28;1987;-74
2023/05/28 01:30:35;;;;;;;;;;;;;;;12.45;73.04;101999.72;5046713;28;1575;-72
2023/05/28 01:33:00;;;;;;;;;;;;;;;12.42;73.37;101997.31;5056960;28;1127;-74
2023/05/28 01:35:25;;;;;;;;;;;;;;;12.37;73.88;101989.00;5061885;28;1200;-73
2023/05/28 01:37:53;;;;;;;;;;;;;;;12.33;73.65;101984.94;5041410;28;1293;-73
2023/05/28 01:40:19;;;;;;;;;;;;;;;12.35;73.56;101980.47;5058118;28;1279;-74
2023/05/28 01:42:49;;;;;;;;;;;;;;;12.37;72.33;101982.00;5046751;28;1755;-72
2023/05/28 01:45:15;;;;;;;;;;;;;;;12.40;72.36;101975.78;5047786;28;1327;-72
2023/05/28 01:47:41;;;;;;;;;;;;;;;12.41;73.22;101974.84;5041239;28;1959;-73
2023/05/28 01:50:07;;;;;;;;;;;;;;;12.40;72.51;101971.41;5046360;28;1267;-72
2023/05/28 01:52:32;;;;;;;;;;;;;;;12.42;73.34;101963.47;5061342;28;1416;-72
2023/05/28 01:54:57;;;;;;;;;;;;;;;12.43;72.96;101965.13;5061778;28;1192;-75
2023/05/28 01:57:23;;;;;;;;;;;;;;;12.45;73.37;101969.31;5040473;28;1257;-72
2023/05/28 01:59:48;;;;;;;;;;;;;;;12.42;73.48;101968.69;5048525;28;1405;-72
2023/05/28 02:02:13;;;;;;;;;;;;;;;12.41;72.75;101964.44;5037438;28;1303;-73
2023/05/28 02:04:38;;;;;;;;;;;;;;;12.40;73.43;101970.56;5073216;28;1262;-73
2023/05/28 02:07:04;;;;;;;;;;;;;;;12.36;74.08;101969.13;5061531;28;1320;-73
2023/05/28 02:09:29;;;;;;;;;;;;;;;12.30;74.44;101974.75;5061910;28;1898;-71
2023/05/28 02:11:55;;;;;;;;;;;;;;;12.27;74.39;101964.56;5055872;28;1874;-72
2023/05/28 02:14:20;;;;;;;;;;;;;;;12.23;74.18;101970.00;5063023;28;1251;-72
2023/05/28 02:16:49;;;;;;;;;;;;;;;12.19;74.09;101963.34;5046224;28;1311;-73
2023/05/28 02:19:15;;;;;;;;;;;;;;;12.15;74.72;101956.69;5052670;28;1121;-72
2023/05/28 02:21:40;;;;;;;;;;;;;;;12.13;73.70;101952.53;5044869;28;1167;-71
2023/05/28 02:24:05;;;;;;;;;;;;;;;12.11;74.32;101955.25;5043333;28;1157;-73
2023/05/28 02:26:31;;;;;;;;;;;;;;;12.08;74.16;101960.66;5040135;28;1087;-72
2023/05/28 02:28:56;;;;;;;;;;;;;;;12.05;74.62;101971.28;5067826;28;1957;-71
2023/05/28 02:31:21;;;;;;;;;;;;;;;12.02;75.68;101971.47;5061092;28;1186;-74
2023/05/28 02:33:46;;;;;;;;;;;;;;;11.98;74.71;101975.22;5045637;28;1345;-73
2023/05/28 02:36:12;;;;;;;;;;;;;;;11.95;74.96;101965.88;5071031;28;1110;-73
2023/05/28 02:38:37;;;;;;;;;;;;;;;11.96;75.82;101966.72;5058895;28;1305;-71
2023/05/28 02:41:02;;;;;;;;;;;;;;;11.93;75.09;101966.94;5053426;28;1128;-71
2023/05/28 02:43:28;;;;;;;;;;;;;;;11.90;76.76;101972.34;5059180;28;1366;-72
2023/05/28 02:45:53;;;;;;;;;;;;;;;11.83;76.29;101976.31;5040576;28;1343;-72
2023/05/28 02:48:18;;;;;;;;;;;;;;;11.81;77.07;101984.19;5059699;28;1963;-73
2023/05/28 02:50:43;;;;;;;;;;;;;;;11.78;78.57;101967.94;5054714;28;1129;-73
2023/05/28 02:53:08;;;;;;;;;;;;;;;11.75;76.92;101973.34;5056230;28;1355;-72
2023/05/28 02:55:34;;;;;;;;;;;;;;;11.72;77.38;101968.38;5059682;28;1141;-71
2023/05/28 02:57:59;;;;;;;;;;;;;;;11.69;77.11;101959.81;5055683;28;1272;-73
2023/05/28 03:00:25;;;;;;;;;;;;;;;11.68;77.72;101963.38;5061215;28;1434;-72
2023/05/28 03:02:50;;;;;;;;;;;;;;;11.69;77.18;101965.03;5057055;28;1415;-72
2023/05/28 03:05:15;;;;;;;;;;;;;;;11.70;76.94;101961.50;5064249;28;1633;-71
2023/05/28 03:07:41;;;;;;;;;;;;;;;11.64;77.60;101967.13;5035518;28;1971;-72
2023/05/28 03:10:07;;;;;;;;;;;;;;;11.60;77.58;101964.84;5043896;28;1312;-72
2023/05/28 03:12:32;;;;;;;;;;;;;;;11.61;78.33;101967.31;5056145;28;1537;-72
2023/05/28 03:14:57;;;;;;;;;;;;;;;11.55;78.49;101964.31;5062455;28;1256;-73
2023/05/28 03:17:22;;;;;;;;;;;;;;;11.51;78.33;101976.66;5044132;28;1299;-72
2023/05/28 03:19:47;;;;;;;;;;;;;;;11.48;78.83;101979.50;5048697;28;1232;-72
2023/05/28 03:22:13;;;;;;;;;;;;;;;11.46;77.74;101981.34;5066489;28;1133;-72
2023/05/28 03:24:39;;;;;;;;;;;;;;;11.44;77.96;101967.63;5070409;28;1083;-72
2023/05/28 03:27:05;;;;;;;;;;;;;;;11.42;78.32;101977.31;5071863;28;1404;-72
2023/05/28 03:29:30;;;;;;;;;;;;;;;11.39;79.08;101988.72;5067317;28;1937;-71
2023/05/28 03:31:55;;;;;;;;;;;;;;;11.36;79.24;101988.94;5035966;28;1431;-73
2023/05/28 03:34:21;;;;;;;;;;;;;;;11.33;79.25;101983.09;5062555;28;1600;-73
2023/05/28 03:36:46;;;;;;;;;;;;;;;11.34;79.56;101984.75;5067040;28;1259;-72
2023/05/28 03:39:11;;;;;;;;;;;;;;;11.34;79.47;101990.78;5063361;28;1514;-72
2023/05/28 03:41:37;;;;;;;;;;;;;;;11.36;79.66;101988.09;5064574;28;1378;-72
2023/05/28 03:44:03;;;;;;;;;;;;;;;11.40;79.94;101985.16;5065809;28;1275;-72
2023/05/28 03:46:28;;;;;;;;;;;;;;;11.42;80.06;101985.09;5057342;28;1408;-73
2023/05/28 03:48:53;;;;;;;;;;;;;;;11.39;78.95;101982.69;5044922;28;1898;-75
2023/05/28 03:51:18;;;;;;;;;;;;;;;11.36;79.68;101983.75;5062005;28;1244;-71
2023/05/28 03:53:44;;;;;;;;;;;;;;;11.39;79.23;101982.69;5066053;28;1123;-72
2023/05/28 03:56:09;;;;;;;;;;;;;;;11.39;80.15;101972.28;5065235;28;1180;-73
2023/05/28 03:58:34;;;;;;;;;;;;;;;11.42;79.30;101982.50;5059512;28;1193;-73
2023/05/28 04:00:59;;;;;;;;;;;;;;;11.45;79.94;101977.09;5066810;28;1295;-72
2023/05/28 04:03:25;;;;;;;;;;;;;;;11.45;80.16;101977.09;5057738;28;1214;-72
2023/05/28 04:05:50;;;;;;;;;;;;;;;11.45;79.86;101979.69;5063166;28;1209;-72
2023/05/28 04:08:15;;;;;;;;;;;;;;;11.46;80.67;101978.75;5054425;28;1909;-72
2023/05/28 04:10:40;;;;;;;;;;;;;;;11.48;80.31;101976.06;5060811;28;1263;-72
2023/05/28 04:13:05;;;;;;;;;;;;;;;11.50;82.13;101980.22;5064192;28;1205;-74
2023/05/28 04:15:31;;;;;;;;;;;;;;;11.47;81.48;101980.44;5066271;28;1176;-72
2023/05/28 04:17:56;;;;;;;;;;;;;;;11.45;81.25;101977.09;5066514;28;1101;-71
2023/05/28 04:20:21;;;;;;;;;;;;;;;11.44;83.14;101985.81;5062812;28;1521;-72
2023/05/28 04:22:47;;;;;;;;;;;;;;;11.45;81.29;101997.88;5066622;28;1167;-72
2023/05/28 04:25:12;;;;;;;;;;;;;;;11.49;81.93;101990.72;5065692;28;993;-73
2023/05/28 04:27:37;;;;;;;;;;;;;;;11.49;81.76;101999.34;5068570;28;1913;-72
2023/05/28 04:30:03;;;;;;;;;;;;;;;11.48;82.55;101997.69;5048273;28;1211;-72
2023/05/28 04:32:31;;;;;;;;;;;;;;;11.51;83.34;102002.66;5038865;28;1250;-75
2023/05/28 04:34:56;;;;;;;;;;;;;;;11.52;82.05;102004.31;5048652;28;1508;-71
2023/05/28 04:37:21;;;;;;;;;;;;;;;11.55;84.34;102006.72;5069032;28;1005;-72
2023/05/28 04:39:47;;;;;;;;;;;;;;;11.56;82.98;102010.97;5050278;28;1240;-73
2023/05/28 04:42:16;;;;;;;;;;;;;;;11.60;82.40;102007.25;5064551;28;1135;-72
2023/05/28 04:44:42;;;;;;;;;;;;;;;11.62;82.15;102007.13;5064987;28;1112;-71
2023/05/28 04:47:08;;;;;;;;;;;;;;;11.65;82.02;102006.94;5045312;28;1354;-71
2023/05/28 04:49:33;;;;;;;;;;;;;;;11.67;82.44;102007.66;5047431;28;1894;-72
2023/05/28 04:51:58;;;;;;;;;;;;;;;11.67;82.85;102018.88;5070235;28;1349;-72
2023/05/28 04:54:24;;;;;;;;;;;;;;;11.65;83.89;102014.72;5065954;28;1196;-73
2023/05/28 04:56:49;;;;;;;;;;;;;;;11.62;82.91;102020.94;5073676;28;1531;-72
2023/05/28 04:59:14;;;;;;;;;;;;;;;11.61;84.96;102018.47;5053656;28;1236;-72
2023/05/28 05:01:39;;;;;;;;;;;;;;;11.59;83.59;102020.34;5063065;28;934;-71
2023/05/28 05:04:05;;;;;;;;;;;;;;;11.60;85.17;102022.84;5047251;28;1262;-74
2023/05/28 05:06:31;;;;;;;;;;;;;;;11.57;84.64;102017.81;5063244;28;1225;-72
2023/05/28 05:08:56;;;;;;;;;;;;;;;11.58;84.24;102016.88;5048424;28;1914;-72
2023/05/28 05:11:21;;;;;;;;;;;;;;;11.60;85.77;102017.63;5058138;28;1036;-72
2023/05/28 05:13:47;;;;;;;;;;;;;;;11.61;84.97;102023.66;5054889;28;1221;-72
2023/05/28 05:16:12;;;;;;;;;;;;;;;11.62;84.43;102028.75;5060745;28;1227;-72
2023/05/28 05:18:37;;;;;;;;;;;;;;;11.64;87.02;102021.69;5067332;28;1216;-71
2023/05/28 05:21:03;;;;;;;;;;;;;;;11.67;85.76;102029.28;5057768;28;1311;-71
2023/05/28 05:23:28;;;;;;;;;;;;;;;11.71;87.11;102014.31;5046732;28;1320;-72
2023/05/28 05:25:53;;;;;;;;;;;;;;;11.77;86.51;102018.28;5040666;28;1315;-71
2023/05/28 05:28:19;;;;;;;;;;;;;;;11.86;87.92;102028.06;5060555;28;1959;-71
2023/05/28 05:30:44;;;;;;;;;;;;;;;11.90;85.90;102021.72;5046329;28;1348;-72
2023/05/28 05:33:09;;;;;;;;;;;;;;;11.95;85.35;102023.09;5053775;28;1256;-71
2023/05/28 05:35:34;;;;;;;;;;;;;;;12.03;84.81;102024.31;5063394;28;1193;-72
2023/05/28 05:37:59;;;;;;;;;;;;;;;12.13;85.13;102014.94;5057099;28;1312;-73
2023/05/28 05:40:25;;;;;;;;;;;;;;;12.17;85.14;102027.66;5057098;28;1049;-73
2023/05/28 05:42:50;;;;;;;;;;;;;;;12.22;85.46;102020.34;5059274;28;1172;-73
2023/05/28 05:45:16;;;;;;;;;;;;;;;12.25;85.21;102023.66;5054691;28;1281;-71
2023/05/28 05:47:41;;;;;;;;;;;;;;;12.29;85.40;102020.75;5068634;28;1911;-71
2023/05/28 05:50:06;;;;;;;;;;;;;;;12.33;85.23;102026.56;5061514;28;1728;-70
2023/05/28 05:52:31;;;;;;;;;;;;;;;12.34;86.12;102025.66;5045148;28;1313;-72
2023/05/28 05:54:57;;;;;;;;;;;;;;;12.36;85.15;102031.56;5061529;28;1388;-74
2023/05/28 05:57:22;;;;;;;;;;;;;;;12.37;85.34;102033.22;5066244;28;1537;-73
2023/05/28 05:59:47;;;;;;;;;;;;;;;12.37;86.04;102033.22;5065644;28;1427;-72
2023/05/28 06:02:13;;;;;;;;;;;;;;;12.37;85.81;102028.03;5054999;28;1317;-71
2023/05/28 06:04:38;;;;;;;;;;;;;;;12.41;84.72;102026.88;5059984;28;1381;-72
2023/05/28 06:07:06;;;;;;;;;;;;;;;12.45;85.13;102025.72;5064914;28;1380;-72
2023/05/28 06:09:32;;;;;;;;;;;;;;;12.50;84.71;102023.59;5061121;28;1910;-72
2023/05/28 06:11:57;;;;;;;;;;;;;;;12.54;84.21;102030.25;5048934;28;1318;-72
2023/05/28 06:14:23;;;;;;;;;;;;;;;12.59;84.56;102028.16;5067091;28;1360;-72
2023/05/28 06:16:48;;;;;;;;;;;;;;;12.64;84.24;102023.47;5071368;28;1283;-72
2023/05/28 06:19:14;;;;;;;;;;;;;;;12.65;84.65;102027.75;5054338;28;1510;-72
2023/05/28 06:21:39;;;;;;;;;;;;;;;12.67;84.52;102036.28;5069836;28;1174;-72
2023/05/28 06:24:05;;;;;;;;;;;;;;;12.73;84.61;102030.66;5070558;28;1112;-72
2023/05/28 06:26:30;;;;;;;;;;;;;;;12.72;85.45;102028.94;5066898;28;1041;-72
2023/05/28 06:28:56;;;;;;;;;;;;;;;12.74;84.95;102026.25;5069922;28;1962;-72
2023/05/28 06:31:21;;;;;;;;;;;;;;;12.75;86.04;102023.53;5068158;28;1146;-74
2023/05/28 06:33:46;;;;;;;;;;;;;;;12.73;85.85;102022.84;5049980;28;1258;-72
2023/05/28 06:36:11;;;;;;;;;;;;;;;12.73;85.36;102029.78;5069831;28;1117;-72
2023/05/28 06:38:36;;;;;;;;;;;;;;;12.74;85.17;102027.09;5066783;28;1158;-72
2023/05/28 06:41:02;;;;;;;;;;;;;;;12.73;86.60;102020.22;5046247;28;1220;-72
2023/05/28 06:43:27;;;;;;;;;;;;;;;12.74;85.57;102021.88;5045186;28;1209;-71
2023/05/28 06:45:52;;;;;;;;;;;;;;;12.75;85.84;102023.53;5063123;28;1084;-72
2023/05/28 06:48:17;;;;;;;;;;;;;;;12.73;85.21;102015.03;5066686;28;1901;-73
2023/05/28 06:50:43;;;;;;;;;;;;;;;12.81;85.93;102026.66;5064043;28;1119;-72
2023/05/28 06:53:08;;;;;;;;;;;;;;;12.84;85.08;102031.63;5056418;28;1139;-73
2023/05/28 06:55:33;;;;;;;;;;;;;;;12.86;86.10;102024.56;5061731;28;1777;-74
2023/05/28 06:57:58;;;;;;;;;;;;;;;12.86;85.81;102034.97;5067321;28;1505;-73
2023/05/28 07:00:23;;;;;;;;;;;;;;;12.92;86.67;102029.31;5068568;28;1235;-73
2023/05/28 07:02:49;;;;;;;;;;;;;;;12.97;86.60;102035.03;5069963;28;1237;-73
2023/05/28 07:05:14;;;;;;;;;;;;;;;13.04;85.58;102028.41;5072461;28;1246;-73
2023/05/28 07:07:40;;;;;;;;;;;;;;;13.13;85.45;102037.31;5069177;28;1906;-74
2023/05/28 07:10:06;;;;;;;;;;;;;;;13.23;85.91;102031.38;5068942;28;1233;-73
2023/05/28 07:12:31;;;;;;;;;;;;;;;13.36;86.68;102028.72;5064901;28;1030;-73
2023/05/28 07:14:56;;;;;;;;;;;;;;;13.47;86.87;102036.53;5063381;28;1153;-74
2023/05/28 07:17:22;;;;;;;;;;;;;;;13.60;86.79;102030.44;5066539;28;1251;-73
2023/05/28 07:19:47;;;;;;;;;;;;;;;13.72;85.72;102040.75;5062896;28;1287;-73
2023/05/28 07:22:13;;;;;;;;;;;;;;;13.86;85.31;102036.25;5055687;28;1268;-73
2023/05/28 07:24:38;;;;;;;;;;;;;;;14.01;84.91;102041.13;5063485;28;1362;-73
2023/05/28 07:27:03;;;;;;;;;;;;;;;14.16;84.37;102044.34;5063057;28;1264;-74
2023/05/28 07:29:28;;;;;;;;;;;;;;;14.31;83.58;102050.97;5066202;28;1890;-74
2023/05/28 07:31:53;;;;;;;;;;;;;;;14.44;82.64;102057.84;5047382;28;1263;-74
2023/05/28 07:34:19;;;;;;;;;;;;;;;14.55;82.04;102063.09;5045827;28;1390;-73
2023/05/28 07:36:44;;;;;;;;;;;;;;;14.68;81.83;102055.97;5042038;28;1310;-74
2023/05/28 07:39:13;;;;;;;;;;;;;;;14.79;81.33;102053.31;5067333;28;1256;-73
2023/05/28 07:41:38;;;;;;;;;;;;;;;14.93;79.53;102054.84;5064438;28;1254;-73
2023/05/28 07:44:03;;;;;;;;;;;;;;;15.08;78.97;102050.13;5061019;28;1205;-75
2023/05/28 07:46:29;;;;;;;;;;;;;;;15.21;78.97;102056.03;5066237;28;1379;-72
2023/05/28 07:48:54;;;;;;;;;;;;;;;15.36;79.44;102062.59;5064968;28;1897;-73
2023/05/28 07:51:19;;;;;;;;;;;;;;;15.49;78.66;102051.16;5062541;28;1468;-73
2023/05/28 07:53:44;;;;;;;;;;;;;;;15.60;77.31;102058.94;5068857;28;1022;-73
2023/05/28 07:56:09;;;;;;;;;;;;;;;15.74;78.11;102061.25;5046677;28;1344;-74
2023/05/28 07:58:35;;;;;;;;;;;;;;;15.88;76.24;102058.28;5056590;28;1309;-73
2023/05/28 08:01:00;;;;;;;;;;;;;;;16.04;77.03;102062.25;5066642;28;1474;-75
2023/05/28 08:03:27;;;;;;;;;;;;;;;16.17;76.11;102058.47;5064659;28;1189;-74
2023/05/28 08:05:53;;;;;;;;;;;;;;;16.34;76.50;102058.78;5060737;28;1129;-73
2023/05/28 08:08:18;;;;;;;;;;;;;;;16.51;75.08;102054.69;5055190;28;1965;-74
2023/05/28 08:10:43;;;;;;;;;;;;;;;16.68;72.38;102056.66;5062457;28;1342;-73
2023/05/28 08:13:08;;;;;;;;;;;;;;;16.75;73.25;102047.34;5046022;28;1227;-74
2023/05/28 08:15:35;;;;;;;;;;;;;;;16.81;72.22;102041.56;5068512;28;1483;-74
2023/05/28 08:18:01;;;;;;;;;;;;;;;16.92;72.49;102049.31;5057950;28;1200;-73
2023/05/28 08:20:26;;;;;;;;;;;;;;;17.03;72.67;102039.63;5041616;28;1312;-73
2023/05/28 08:22:51;;;;;;;;;;;;;;;17.13;72.63;102040.47;5058843;28;1387;-74
2023/05/28 08:25:17;;;;;;;;;;;;;;;17.18;72.93;102038.25;5067512;28;1097;-74
2023/05/28 08:27:42;;;;;;;;;;;;;;;17.26;70.08;102043.63;5044859;28;1970;-73
2023/05/28 08:30:08;;;;;;;;;;;;;;;17.35;71.78;102039.34;5046382;28;1353;-74
2023/05/28 08:32:33;;;;;;;;;;;;;;;17.43;69.21;102048.19;5060369;28;1060;-75
2023/05/28 08:34:59;;;;;;;;;;;;;;;17.49;69.47;102042.38;5046686;28;1342;-75
2023/05/28 08:37:24;;;;;;;;;;;;;;;17.58;70.30;102039.88;5044340;28;1307;-74
2023/05/28 08:39:50;;;;;;;;;;;;;;;17.66;67.42;102037.34;5062758;28;1073;-74
2023/05/28 08:42:15;;;;;;;;;;;;;;;17.74;68.31;102032.28;5043779;28;1401;-74
2023/05/28 08:44:41;;;;;;;;;;;;;;;17.85;68.42;102032.09;5063065;28;1044;-74
2023/05/28 08:47:07;;;;;;;;;;;;;;;17.97;68.94;102041.47;5031732;28;1168;-74
2023/05/28 08:49:37;;;;;;;;;;;;;;;18.10;67.36;102040.31;5057307;28;1894;-73
2023/05/28 08:52:04;;;;;;;;;;;;;;;18.16;64.74;102035.28;5046475;28;1281;-73
2023/05/28 08:54:30;;;;;;;;;;;;;;;18.18;63.50;102043.00;5060740;28;1237;-73
2023/05/28 08:56:55;;;;;;;;;;;;;;;18.21;65.61;102042.75;5039972;28;1281;-74
2023/05/28 08:59:20;;;;;;;;;;;;;;;18.29;65.81;102042.81;5037691;28;1312;-74
2023/05/28 09:01:46;;;;;;;;;;;;;;;18.36;65.13;102038.66;5051060;28;1359;-74
2023/05/28 09:04:11;;;;;;;;;;;;;;;18.45;65.87;102040.38;5036994;28;1259;-74
2023/05/28 09:06:40;;;;;;;;;;;;;;;18.51;63.00;102039.81;5048106;28;1284;-74
2023/05/28 09:09:07;;;;;;;;;;;;;;;18.60;64.59;102042.53;5067101;28;1977;-73
2023/05/28 09:11:32;;;;;;;;;;;;;;;18.66;64.43;102031.44;5041354;28;1430;-74
2023/05/28 09:13:58;;;;;;;;;;;;;;;18.70;62.74;102030.19;5061795;28;1224;-73
2023/05/28 09:16:23;;;;;;;;;;;;;;;18.74;62.89;102034.16;5064872;28;1399;-74
2023/05/28 09:18:50;;;;;;;;;;;;;;;18.78;60.62;102043.41;5063951;28;1169;-74
2023/05/28 09:21:15;;;;;;;;;;;;;;;18.86;60.14;102024.25;5048100;28;1387;-75
2023/05/28 09:23:44;;;;;;;;;;;;;;;18.99;62.07;102024.72;5056368;28;1609;-74
2023/05/28 09:26:09;;;;;;;;;;;;;;;19.17;61.34;102022.91;5056005;28;1204;-75
2023/05/28 09:28:35;;;;;;;;;;;;;;;19.30;61.54;102025.94;5042201;28;1901;-74
2023/05/28 09:31:03;;;;;;;;;;;;;;;19.35;58.83;102012.34;5063704;28;1502;-73
2023/05/28 09:33:29;;;;;;;;;;;;;;;19.46;57.45;102009.47;5035600;28;1293;-74
2023/05/28 09:35:58;;;;;;;;;;;;;;;19.58;58.00;102017.91;5062873;28;1507;-74
2023/05/28 09:38:26;;;;;;;;;;;;;;;19.63;58.83;102015.69;5062419;28;1288;-74
2023/05/28 09:40:53;;;;;;;;;;;;;;;19.70;55.78;102011.44;5053932;28;1385;-74
2023/05/28 09:43:26;;;;;;;;;;;;;;;19.75;58.14;102019.69;5041817;28;1702;-74
2023/05/28 09:45:51;;;;;;;;;;;;;;;19.83;58.18;102017.09;5061520;28;1259;-75
2023/05/28 09:48:16;;;;;;;;;;;;;;;19.97;56.40;102015.69;5051594;28;1959;-75
2023/05/28 09:50:42;;;;;;;;;;;;;;;20.08;54.73;102004.06;5034259;28;1363;-74
2023/05/28 09:53:08;;;;;;;;;;;;;;;20.21;55.93;102014.16;5066367;28;1284;-73
2023/05/28 09:55:34;;;;;;;;;;;;;;;20.28;52.81;102012.53;5046800;28;1378;-74
2023/05/28 09:58:03;;;;;;;;;;;;;;;20.33;52.21;102007.59;5052616;28;1218;-74
2023/05/28 10:00:33;;;;;;;;;;;;;;;20.41;53.72;102003.19;5047090;28;1405;-76
2023/05/28 10:03:01;;;;;;;;;;;;;;;20.52;49.36;102006.50;5064738;28;1497;-74
2023/05/28 10:05:31;;;;;;;;;;;;;;;20.51;49.04;102008.31;5059900;28;1263;-74
2023/05/28 10:07:56;;;;;;;;;;;;;;;20.52;52.23;102006.50;5050943;28;1902;-74
2023/05/28 10:10:22;;;;;;;;;;;;;;;20.53;51.21;102013.44;5049689;28;1084;-74
2023/05/28 10:12:49;;;;;;;;;;;;;;;20.56;52.05;102008.66;5056527;28;1311;-75
2023/05/28 10:15:15;;;;;;;;;;;;;;;20.59;52.15;102008.38;5047493;28;1339;-74
2023/05/28 10:17:41;;;;;;;;;;;;;;;20.53;51.32;102002.88;5054762;28;1255;-74
2023/05/28 10:20:09;;;;;;;;;;;;;;;20.50;49.58;102006.69;5063274;28;1167;-74
2023/05/28 10:22:35;;;;;;;;;;;;;;;20.56;51.10;102008.66;5036890;28;1267;-74
2023/05/28 10:25:00;;;;;;;;;;;;;;;20.64;52.01;102021.88;5064293;28;1112;-74
2023/05/28 10:27:32;;;;;;;;;;;;;;;20.68;50.50;102015.28;5050336;28;1084;-75
2023/05/28 10:29:57;;;;;;;;;;;;;;;20.72;49.74;102007.06;5064494;28;1955;-75
2023/05/28 10:32:22;;;;;;;;;;;;;;;20.72;49.78;102009.69;5052215;28;981;-74
2023/05/28 10:34:48;;;;;;;;;;;;;;;20.79;50.48;102010.69;5063273;28;1142;-74
2023/05/28 10:37:22;;;;;;;;;;;;;;;20.87;50.04;102013.31;5061746;28;1096;-75
2023/05/28 10:39:47;;;;;;;;;;;;;;;20.93;50.32;102015.28;5048626;28;1135;-74
2023/05/28 10:42:16;;;;;;;;;;;;;;;20.97;49.40;102011.34;5034051;28;1299;-74
2023/05/28 10:44:48;;;;;;;;;;;;;;;20.98;49.42;102010.34;5062578;28;1138;-74
2023/05/28 10:47:13;;;;;;;;;;;;;;;21.00;49.05;102016.31;5064270;28;1083;-76
2023/05/28 10:49:57;;;;;;;;;;;;;;;21.01;50.18;102012.69;5063510;28;1964;-74
2023/05/28 10:52:22;;;;;;;;;;;;;;;21.08;49.69;102013.66;5038631;28;1352;-76
2023/05/28 10:54:51;;;;;;;;;;;;;;;21.13;49.36;102008.72;5061637;28;1251;-74
2023/05/28 10:57:23;;;;;;;;;;;;;;;21.20;49.27;102012.34;5047201;28;1320;-75
2023/05/28 10:59:49;;;;;;;;;;;;;;;21.28;50.03;102013.34;5069563;28;1538;-75
2023/05/28 11:02:20;;;;;;;;;;;;;;;21.32;48.98;102009.38;5060262;28;1248;-75
2023/05/28 11:04:49;;;;;;;;;;;;;;;21.33;47.28;102005.75;5067901;28;1157;-75
2023/05/28 11:07:14;;;;;;;;;;;;;;;21.35;47.35;102014.34;5044458;28;1256;-75
2023/05/28 11:09:40;;;;;;;;;;;;;;;21.42;49.79;102004.75;5065462;28;1890;-74
2023/05/28 11:12:06;;;;;;;;;;;;;;;21.48;47.61;102012.81;5067703;28;1040;-76
2023/05/28 11:14:35;;;;;;;;;;;;;;;21.51;48.64;102014.31;5069143;28;1049;-74
2023/05/28 11:17:01;;;;;;;;;;;;;;;21.61;45.75;102014.94;5043479;28;1380;-75
2023/05/28 11:19:26;;;;;;;;;;;;;;;21.67;48.85;102008.97;5053510;28;1308;-74
2023/05/28 11:21:52;;;;;;;;;;;;;;;21.74;48.04;102009.16;5069028;28;1256;-75
2023/05/28 11:24:17;;;;;;;;;;;;;;;21.81;48.14;102014.56;5057795;28;1056;-75
2023/05/28 11:26:43;;;;;;;;;;;;;;;21.87;47.56;102013.88;5054682;28;1181;-75
2023/05/28 11:29:08;;;;;;;;;;;;;;;21.87;48.26;102021.81;5039984;28;1930;-74
2023/05/28 11:31:42;;;;;;;;;;;;;;;21.80;47.80;102012.94;5057952;28;1173;-74
2023/05/28 11:34:08;;;;;;;;;;;;;;;21.76;46.08;102017.72;5062277;28;1184;-74
2023/05/28 11:36:39;;;;;;;;;;;;;;;21.81;45.50;102014.56;5067460;28;1388;-74
2023/05/28 11:39:04;;;;;;;;;;;;;;;21.86;46.66;102017.53;5056817;28;1596;-74
2023/05/28 11:41:30;;;;;;;;;;;;;;;21.92;46.33;102011.56;5066787;28;1314;-74
2023/05/28 11:43:56;;;;;;;;;;;;;;;21.96;46.69;102018.97;5059652;28;1722;-74
2023/05/28 11:46:22;;;;;;;;;;;;;;;21.90;45.05;102013.53;5068432;28;1154;-75
2023/05/28 11:48:47;;;;;;;;;;;;;;;21.92;46.95;102019.50;5067440;28;1998;-75
2023/05/28 11:51:12;;;;;;;;;;;;;;;21.97;46.35;102014.53;5062177;28;1103;-74
2023/05/28 11:53:41;;;;;;;;;;;;;;;22.02;46.81;102017.44;5064484;28;1204;-74
2023/05/28 11:56:08;;;;;;;;;;;;;;;22.09;45.00;102007.88;5060765;28;1510;-75
2023/05/28 11:58:33;;;;;;;;;;;;;;;22.09;45.20;102012.31;5059839;28;1276;-74
2023/05/28 12:01:00;;;;;;;;;;;;;;;22.06;46.24;102007.38;5068400;28;1365;-75
2023/05/28 12:03:26;;;;;;;;;;;;;;;22.12;47.01;102017.28;5063451;28;1474;-75
2023/05/28 12:05:51;;;;;;;;;;;;;;;22.22;47.10;102015.25;5044770;28;1212;-74
2023/05/28 12:08:17;;;;;;;;;;;;;;;22.26;46.64;102020.03;5062689;28;1906;-74
2023/05/28 12:10:42;;;;;;;;;;;;;;;22.18;44.72;102006.84;5065017;28;1217;-74
2023/05/28 12:13:08;;;;;;;;;;;;;;;22.16;45.04;102011.50;5052889;28;1141;-74
2023/05/28 12:15:33;;;;;;;;;;;;;;;22.23;45.89;102015.06;5048300;28;1296;-74
2023/05/28 12:18:00;;;;;;;;;;;;;;;22.29;43.43;101999.53;5055515;28;1362;-74
2023/05/28 12:20:29;;;;;;;;;;;;;;;22.33;44.27;102014.06;5064787;28;1084;-74
2023/05/28 12:23:07;;;;;;;;;;;;;;;22.38;44.12;102006.44;5059472;28;1062;-74
2023/05/28 12:25:42;;;;;;;;;;;;;;;22.43;43.75;102006.72;5056974;28;1037;-75
2023/05/28 12:28:07;;;;;;;;;;;;;;;22.49;44.10;102003.38;5050911;28;1961;-74
2023/05/28 12:30:32;;;;;;;;;;;;;;;22.49;44.49;101995.44;5051494;28;1193;-74
2023/05/28 12:32:59;;;;;;;;;;;;;;;22.48;44.78;101999.06;5058034;28;1262;-73
2023/05/28 12:35:25;;;;;;;;;;;;;;;22.54;43.52;101995.75;5058362;28;1192;-74
2023/05/28 12:37:50;;;;;;;;;;;;;;;22.59;43.49;101997.84;5058908;28;1253;-73
2023/05/28 12:40:15;;;;;;;;;;;;;;;22.58;43.81;101997.03;5039536;28;1193;-75